Time;durP1;ratioP1;P1;durP2;ratioP2;P2;SDS_P1;SDS_P2;PMS_P1;PMS_P2;Temp;Humidity;BMP_temperature;BMP_pressure;BME280_temperature;BME280_humidity;BME280_pressure;Samples;Min_cycle;Max_cycle;Signal;HPM_P1;HPM_P2
2022/08/18 00:00:10;;;;;;;;;;;19.00;99.90;;;;;;5055034;28;19924;-66
2022/08/18 00:02:37;;;;;;;;;;;19.00;99.90;;;;;;5056990;28;20920;-68
2022/08/18 00:05:03;;;;;;;;;;;19.10;99.90;;;;;;5062585;28;20003;-67
2022/08/18 00:07:30;;;;;;;;;;;19.00;99.90;;;;;;5049995;28;19999;-66
2022/08/18 00:09:57;;;;;;;;;;;19.10;99.90;;;;;;5056283;28;20394;-67
2022/08/18 00:12:25;;;;;;;;;;;19.00;99.90;;;;;;5057058;28;19921;-66
2022/08/18 00:14:51;;;;;;;;;;;18.90;99.90;;;;;;5056862;28;19913;-67
2022/08/18 00:17:17;;;;;;;;;;;18.90;99.90;;;;;;5054106;28;19931;-68
2022/08/18 00:19:43;;;;;;;;;;;18.90;99.90;;;;;;5054680;28;19919;-67
2022/08/18 00:22:10;;;;;;;;;;;18.90;99.90;;;;;;5058541;28;19928;-67
2022/08/18 00:24:37;;;;;;;;;;;18.90;99.90;;;;;;5054066;28;20009;-67
2022/08/18 00:27:04;;;;;;;;;;;18.80;99.90;;;;;;5056397;28;19920;-66
2022/08/18 00:29:29;;;;;;;;;;;18.80;99.90;;;;;;5065523;28;19928;-67
2022/08/18 00:31:55;;;;;;;;;;;18.80;99.90;;;;;;5071451;28;19969;-67
2022/08/18 00:34:20;;;;;;;;;;;18.90;99.90;;;;;;5074308;28;20373;-67
2022/08/18 00:36:46;;;;;;;;;;;18.90;99.90;;;;;;5076768;28;20278;-66
2022/08/18 00:39:11;;;;;;;;;;;18.90;99.90;;;;;;5072145;28;20011;-67
2022/08/18 00:41:37;;;;;;;;;;;18.90;99.90;;;;;;5072107;28;19912;-67
2022/08/18 00:44:03;;;;;;;;;;;18.90;99.90;;;;;;5074479;28;19928;-67
2022/08/18 00:46:32;;;;;;;;;;;18.90;99.90;;;;;;5073805;28;19926;-67
2022/08/18 00:48:57;;;;;;;;;;;18.80;99.90;;;;;;5073690;28;20361;-68
2022/08/18 00:51:29;;;;;;;;;;;18.90;99.90;;;;;;5076113;28;19998;-66
2022/08/18 00:54:15;;;;;;;;;;;18.90;99.90;;;;;;5078040;28;19912;-67
2022/08/18 00:56:43;;;;;;;;;;;19.00;99.90;;;;;;5074095;28;20013;-68
2022/08/18 00:59:19;;;;;;;;;;;19.00;99.90;;;;;;5075417;28;19912;-67
2022/08/18 01:01:47;;;;;;;;;;;18.80;99.90;;;;;;5075612;28;19912;-67
2022/08/18 01:04:21;;;;;;;;;;;18.70;99.90;;;;;;5076172;28;20347;-68
2022/08/18 01:06:51;;;;;;;;;;;18.70;99.90;;;;;;5065956;28;19921;-68
2022/08/18 01:09:17;;;;;;;;;;;18.80;99.90;;;;;;5082292;28;19912;-67
2022/08/18 01:11:43;;;;;;;;;;;18.80;99.90;;;;;;5080756;28;20281;-67
2022/08/18 01:14:09;;;;;;;;;;;18.70;99.90;;;;;;5079894;28;19917;-67
2022/08/18 01:22:10;;;;;;;;;;;18.70;99.90;;;;;;5080007;28;20523;-67
2022/08/18 01:27:20;;;;;;;;;;;18.60;99.90;;;;;;5074882;28;19919;-67
2022/08/18 01:29:47;;;;;;;;;;;18.70;99.90;;;;;;5081903;28;19939;-68
2022/08/18 01:32:18;;;;;;;;;;;18.90;99.90;;;;;;5073225;28;19912;-67
2022/08/18 01:34:46;;;;;;;;;;;19.00;99.90;;;;;;5081977;28;19942;-66
2022/08/18 01:37:22;;;;;;;;;;;19.00;99.90;;;;;;5078654;28;19921;-67
2022/08/18 01:39:48;;;;;;;;;;;18.90;99.90;;;;;;5076985;28;19912;-67
2022/08/18 01:42:15;;;;;;;;;;;19.00;99.90;;;;;;5067067;28;19927;-67
2022/08/18 01:44:42;;;;;;;;;;;18.90;99.90;;;;;;5063135;28;19939;-67
2022/08/18 01:47:09;;;;;;;;;;;18.90;99.90;;;;;;5079425;28;19920;-66
2022/08/18 01:49:35;;;;;;;;;;;18.90;99.90;;;;;;5079105;28;20350;-67
2022/08/18 01:52:00;;;;;;;;;;;18.90;99.90;;;;;;5079779;28;19959;-66
2022/08/18 01:54:29;;;;;;;;;;;18.90;99.90;;;;;;5074887;28;19912;-66
2022/08/18 01:56:54;;;;;;;;;;;18.80;99.90;;;;;;5080152;28;20007;-68
2022/08/18 01:59:20;;;;;;;;;;;18.80;99.90;;;;;;5077139;28;20003;-68
2022/08/18 02:01:46;;;;;;;;;;;18.80;99.90;;;;;;5078389;28;20054;-67
2022/08/18 02:04:13;;;;;;;;;;;18.80;99.90;;;;;;5077404;28;19912;-67
2022/08/18 02:06:39;;;;;;;;;;;18.70;99.90;;;;;;5079871;28;19920;-66
2022/08/18 02:09:04;;;;;;;;;;;18.70;99.90;;;;;;5075500;28;19924;-67
2022/08/18 02:11:30;;;;;;;;;;;18.70;99.90;;;;;;5073291;28;19912;-66
2022/08/18 02:13:56;;;;;;;;;;;18.80;99.90;;;;;;5079396;28;19916;-67
2022/08/18 02:16:21;;;;;;;;;;;18.70;99.90;;;;;;5083413;28;19919;-66
2022/08/18 02:18:47;;;;;;;;;;;18.70;99.90;;;;;;5078630;28;19920;-67
2022/08/18 02:21:14;;;;;;;;;;;18.70;99.90;;;;;;5078686;28;20527;-68
2022/08/18 02:23:41;;;;;;;;;;;18.70;99.90;;;;;;5075889;28;19960;-68
2022/08/18 02:26:07;;;;;;;;;;;18.70;99.90;;;;;;5074461;28;20476;-68
2022/08/18 02:28:33;;;;;;;;;;;18.90;99.90;;;;;;5076904;28;19921;-68
2022/08/18 02:31:03;;;;;;;;;;;18.90;99.90;;;;;;5075303;28;19989;-65
2022/08/18 02:33:28;;;;;;;;;;;18.90;99.90;;;;;;5072534;28;19920;-67
2022/08/18 02:35:54;;;;;;;;;;;18.80;99.90;;;;;;5077797;28;20016;-68
2022/08/18 02:38:19;;;;;;;;;;;18.80;99.90;;;;;;5078817;28;19920;-68
2022/08/18 02:40:45;;;;;;;;;;;18.70;99.90;;;;;;5073808;28;19913;-67
2022/08/18 02:43:11;;;;;;;;;;;18.60;99.90;;;;;;5078813;28;19924;-68
2022/08/18 02:45:38;;;;;;;;;;;18.70;99.90;;;;;;5072335;28;21112;-67
2022/08/18 02:48:04;;;;;;;;;;;18.60;99.90;;;;;;5079992;28;20366;-67
2022/08/18 02:50:29;;;;;;;;;;;18.60;99.90;;;;;;5077226;28;20485;-66
2022/08/18 02:52:55;;;;;;;;;;;18.60;99.90;;;;;;5074154;28;19920;-67
2022/08/18 02:55:22;;;;;;;;;;;18.50;99.90;;;;;;5080763;28;19976;-67
2022/08/18 02:57:51;;;;;;;;;;;18.50;99.90;;;;;;5082428;28;20429;-67
2022/08/18 03:00:17;;;;;;;;;;;18.60;99.90;;;;;;5079440;28;19963;-66
2022/08/18 03:02:50;;;;;;;;;;;18.70;99.90;;;;;;5080050;28;19960;-67
2022/08/18 03:05:16;;;;;;;;;;;18.80;99.90;;;;;;5087380;28;20819;-67
2022/08/18 03:07:42;;;;;;;;;;;18.70;99.90;;;;;;5082278;28;20011;-66
2022/08/18 03:10:08;;;;;;;;;;;18.70;99.90;;;;;;5075583;28;19951;-67
2022/08/18 03:12:34;;;;;;;;;;;18.70;99.90;;;;;;5079351;28;19919;-66
2022/08/18 03:15:00;;;;;;;;;;;18.70;99.90;;;;;;5083689;28;20369;-66
2022/08/18 03:17:26;;;;;;;;;;;18.60;99.90;;;;;;5083696;28;19939;-66
2022/08/18 03:19:52;;;;;;;;;;;18.70;99.90;;;;;;5076216;28;19966;-65
2022/08/18 03:22:17;;;;;;;;;;;18.70;99.90;;;;;;5078480;28;19935;-67
2022/08/18 03:24:43;;;;;;;;;;;18.70;99.90;;;;;;5079522;28;19912;-66
2022/08/18 03:27:09;;;;;;;;;;;18.70;99.90;;;;;;5078943;28;20002;-67
2022/08/18 03:29:35;;;;;;;;;;;18.70;99.90;;;;;;5078930;28;19950;-67
2022/08/18 03:32:02;;;;;;;;;;;18.60;99.90;;;;;;5074988;28;19965;-66
2022/08/18 03:34:28;;;;;;;;;;;18.50;99.90;;;;;;5076961;28;19999;-68
2022/08/18 03:36:53;;;;;;;;;;;18.60;99.90;;;;;;5076704;28;20058;-67
2022/08/18 03:39:22;;;;;;;;;;;18.60;99.90;;;;;;5074654;28;20362;-67
2022/08/18 03:41:47;;;;;;;;;;;18.60;99.90;;;;;;5079360;28;19919;-66
2022/08/18 03:44:13;;;;;;;;;;;18.60;99.90;;;;;;5062347;28;19912;-66
2022/08/18 03:46:40;;;;;;;;;;;18.50;99.90;;;;;;5064690;28;20010;-67
2022/08/18 03:49:05;;;;;;;;;;;18.60;99.90;;;;;;5075661;28;20390;-68
2022/08/18 03:51:31;;;;;;;;;;;18.60;99.90;;;;;;5074559;28;19954;-66
2022/08/18 03:53:59;;;;;;;;;;;18.70;99.90;;;;;;5075779;28;19970;-66
2022/08/18 03:56:26;;;;;;;;;;;18.70;99.90;;;;;;5076760;28;19919;-66
2022/08/18 03:58:54;;;;;;;;;;;18.70;99.90;;;;;;5072839;28;20012;-67
2022/08/18 04:01:21;;;;;;;;;;;18.70;99.90;;;;;;5076286;28;19913;-67
2022/08/18 04:03:48;;;;;;;;;;;18.80;99.90;;;;;;5075370;28;19927;-67
2022/08/18 04:06:19;;;;;;;;;;;18.70;99.90;;;;;;5075695;28;21618;-67
2022/08/18 04:08:45;;;;;;;;;;;18.60;99.90;;;;;;5071175;28;19916;-66
2022/08/18 04:11:11;;;;;;;;;;;18.50;99.90;;;;;;5059047;28;20427;-66
2022/08/18 04:13:38;;;;;;;;;;;18.60;99.90;;;;;;5074532;28;20358;-66
2022/08/18 04:16:04;;;;;;;;;;;18.80;99.90;;;;;;5065563;28;19963;-67
2022/08/18 04:18:31;;;;;;;;;;;18.70;99.90;;;;;;5080752;28;19962;-66
2022/08/18 04:21:06;;;;;;;;;;;18.60;99.90;;;;;;5084925;28;20384;-67
2022/08/18 04:23:36;;;;;;;;;;;18.60;99.90;;;;;;5079770;28;19935;-67
2022/08/18 04:26:02;;;;;;;;;;;18.60;99.90;;;;;;5078464;28;20362;-67
2022/08/18 04:28:27;;;;;;;;;;;18.50;99.90;;;;;;5072564;28;19912;-67
2022/08/18 04:30:58;;;;;;;;;;;18.50;99.90;;;;;;5072651;28;19929;-68
2022/08/18 04:33:27;;;;;;;;;;;18.60;99.90;;;;;;5073292;28;19920;-67
2022/08/18 04:35:53;;;;;;;;;;;18.70;99.90;;;;;;5069490;28;19940;-67
2022/08/18 04:38:19;;;;;;;;;;;18.70;99.90;;;;;;5075101;28;19998;-68
2022/08/18 04:40:46;;;;;;;;;;;18.60;99.90;;;;;;5071236;28;19951;-67
2022/08/18 04:43:14;;;;;;;;;;;18.50;99.90;;;;;;5073580;28;19929;-68
2022/08/18 04:45:45;;;;;;;;;;;18.40;99.90;;;;;;5079511;28;20257;-67
2022/08/18 04:48:11;;;;;;;;;;;18.30;99.90;;;;;;5076710;28;20358;-67
2022/08/18 04:50:37;;;;;;;;;;;18.40;99.90;;;;;;5077250;28;19923;-66
2022/08/18 04:55:50;;;;;;;;;;;18.40;99.90;;;;;;5073665;28;19966;-67
2022/08/18 04:58:17;;;;;;;;;;;18.40;99.90;;;;;;5075129;28;20365;-67
2022/08/18 05:00:44;;;;;;;;;;;18.50;99.90;;;;;;5075884;28;20357;-67
2022/08/18 05:03:10;;;;;;;;;;;18.50;99.90;;;;;;5079190;28;20579;-67
2022/08/18 05:05:35;;;;;;;;;;;18.50;99.90;;;;;;5073223;28;19912;-67
2022/08/18 05:08:01;;;;;;;;;;;18.50;99.90;;;;;;5073601;28;19920;-67
2022/08/18 05:10:26;;;;;;;;;;;18.50;99.90;;;;;;5071313;28;20972;-68
2022/08/18 05:12:52;;;;;;;;;;;18.30;99.90;;;;;;5056198;28;19916;-67
2022/08/18 05:15:18;;;;;;;;;;;18.20;99.90;;;;;;5073783;28;19916;-67
2022/08/18 05:17:44;;;;;;;;;;;18.20;99.90;;;;;;5074063;28;19942;-66
2022/08/18 05:20:09;;;;;;;;;;;18.10;99.90;;;;;;5076342;28;19920;-67
2022/08/18 05:22:36;;;;;;;;;;;18.10;99.90;;;;;;5071396;28;19930;-67
2022/08/18 05:25:02;;;;;;;;;;;18.10;99.90;;;;;;5075643;28;19920;-67
2022/08/18 05:27:31;;;;;;;;;;;18.10;99.90;;;;;;5072304;28;20018;-66
2022/08/18 05:29:57;;;;;;;;;;;18.10;99.90;;;;;;5073905;28;20265;-66
2022/08/18 05:32:22;;;;;;;;;;;18.10;99.90;;;;;;5071835;28;19912;-67
2022/08/18 05:34:48;;;;;;;;;;;18.20;99.90;;;;;;5077513;28;19921;-67
2022/08/18 05:37:34;;;;;;;;;;;18.30;99.90;;;;;;5069448;28;19995;-67
2022/08/18 05:40:01;;;;;;;;;;;18.40;99.90;;;;;;5062478;28;20636;-67
2022/08/18 05:42:29;;;;;;;;;;;18.40;99.90;;;;;;5075024;28;19927;-67
2022/08/18 05:44:55;;;;;;;;;;;18.30;99.90;;;;;;5077931;28;20057;-67
2022/08/18 05:47:20;;;;;;;;;;;18.30;99.90;;;;;;5071552;28;20413;-67
2022/08/18 05:49:49;;;;;;;;;;;18.20;99.90;;;;;;5078073;28;20254;-67
2022/08/18 05:52:15;;;;;;;;;;;18.20;99.90;;;;;;5062674;28;19920;-67
2022/08/18 05:57:32;;;;;;;;;;;18.40;99.90;;;;;;5078043;28;19919;-67
2022/08/18 05:59:58;;;;;;;;;;;18.50;99.90;;;;;;5078805;28;20370;-66
2022/08/18 06:02:32;;;;;;;;;;;18.60;99.90;;;;;;5078338;28;19935;-67
2022/08/18 06:05:10;;;;;;;;;;;18.60;99.90;;;;;;5062335;28;20249;-67
2022/08/18 06:07:41;;;;;;;;;;;18.60;99.90;;;;;;5075026;28;19919;-67
2022/08/18 06:10:07;;;;;;;;;;;18.50;99.90;;;;;;5076536;28;19915;-66
2022/08/18 06:12:41;;;;;;;;;;;18.40;99.90;;;;;;5062224;28;20377;-67
2022/08/18 06:15:16;;;;;;;;;;;18.40;99.90;;;;;;5077333;28;20296;-67
2022/08/18 06:17:45;;;;;;;;;;;18.40;99.90;;;;;;5077095;28;20010;-67
2022/08/18 06:20:26;;;;;;;;;;;18.50;99.90;;;;;;5078039;28;20369;-67
2022/08/18 06:22:55;;;;;;;;;;;18.60;99.90;;;;;;5076201;28;19928;-66
2022/08/18 06:25:23;;;;;;;;;;;18.50;99.90;;;;;;5079543;28;19920;-67
2022/08/18 06:28:02;;;;;;;;;;;18.60;99.90;;;;;;5082176;28;19916;-67
2022/08/18 06:30:31;;;;;;;;;;;18.60;99.90;;;;;;5078723;28;19958;-67
2022/08/18 06:33:15;;;;;;;;;;;18.70;99.90;;;;;;5064166;28;19920;-67
2022/08/18 06:35:40;;;;;;;;;;;18.60;99.90;;;;;;5077693;28;19965;-66
2022/08/18 06:38:37;;;;;;;;;;;18.60;99.90;;;;;;5072974;28;19924;-68
2022/08/18 06:41:08;;;;;;;;;;;18.60;99.90;;;;;;5076043;28;19913;-67
2022/08/18 06:43:35;;;;;;;;;;;18.50;99.90;;;;;;5079857;28;19946;-67
2022/08/18 06:46:04;;;;;;;;;;;18.70;99.90;;;;;;5076170;28;19912;-67
2022/08/18 06:48:39;;;;;;;;;;;19.00;99.90;;;;;;5057552;28;19989;-67
2022/08/18 06:51:06;;;;;;;;;;;19.20;99.90;;;;;;5079126;28;20305;-67
2022/08/18 06:53:53;;;;;;;;;;;19.10;99.90;;;;;;5071263;28;19966;-68
2022/08/18 06:56:25;;;;;;;;;;;19.00;99.90;;;;;;5072689;28;20377;-67
2022/08/18 06:58:54;;;;;;;;;;;19.10;99.90;;;;;;5074891;28;19919;-67
2022/08/18 07:01:21;;;;;;;;;;;19.10;99.90;;;;;;5072830;28;19912;-68
2022/08/18 07:03:53;;;;;;;;;;;19.20;99.90;;;;;;5074645;28;20363;-67
2022/08/18 07:06:20;;;;;;;;;;;19.30;99.90;;;;;;5074819;28;19919;-67
2022/08/18 07:08:46;;;;;;;;;;;19.40;99.90;;;;;;5066100;28;19912;-66
2022/08/18 07:11:11;;;;;;;;;;;19.40;99.90;;;;;;5080471;28;19930;-67
2022/08/18 07:13:39;;;;;;;;;;;19.40;99.90;;;;;;5072151;28;20358;-65
2022/08/18 07:16:16;;;;;;;;;;;19.40;99.90;;;;;;5070002;28;19931;-67
2022/08/18 07:18:42;;;;;;;;;;;19.40;99.90;;;;;;5055021;28;20545;-65
2022/08/18 07:21:08;;;;;;;;;;;19.60;99.90;;;;;;5071617;28;19916;-67
2022/08/18 07:23:38;;;;;;;;;;;19.80;99.90;;;;;;5076374;28;19920;-67
2022/08/18 07:26:12;;;;;;;;;;;19.80;99.90;;;;;;5073619;28;20023;-66
2022/08/18 07:28:41;;;;;;;;;;;20.10;99.90;;;;;;5061725;28;20270;-66
2022/08/18 07:31:18;;;;;;;;;;;20.30;99.90;;;;;;5080148;28;20389;-68
2022/08/18 07:33:48;;;;;;;;;;;20.50;99.90;;;;;;5076083;28;19912;-67
2022/08/18 07:36:15;;;;;;;;;;;20.60;99.90;;;;;;5075299;28;19921;-68
2022/08/18 07:38:44;;;;;;;;;;;20.70;99.90;;;;;;5053347;28;19963;-70
2022/08/18 07:41:13;;;;;;;;;;;20.80;99.90;;;;;;5067715;28;20014;-68
2022/08/18 07:43:48;;;;;;;;;;;20.70;99.90;;;;;;5074300;28;19920;-67
2022/08/18 07:46:22;;;;;;;;;;;20.80;99.90;;;;;;5075327;28;19995;-68
2022/08/18 07:48:48;;;;;;;;;;;20.90;99.90;;;;;;5075519;28;19948;-68
2022/08/18 07:51:19;;;;;;;;;;;21.10;99.90;;;;;;5071515;28;20611;-67
2022/08/18 07:53:45;;;;;;;;;;;21.20;99.90;;;;;;5075946;28;19912;-67
2022/08/18 07:56:33;;;;;;;;;;;21.30;99.90;;;;;;5077145;28;20397;-67
2022/08/18 07:58:59;;;;;;;;;;;21.20;99.90;;;;;;5052647;28;19972;-67
2022/08/18 08:01:34;;;;;;;;;;;21.10;99.90;;;;;;5073938;28;19912;-66
2022/08/18 08:04:10;;;;;;;;;;;21.00;99.90;;;;;;5073312;28;20370;-67
2022/08/18 08:06:44;;;;;;;;;;;21.10;99.90;;;;;;5071541;28;19916;-65
2022/08/18 08:09:13;;;;;;;;;;;21.40;99.90;;;;;;5069799;28;20016;-65
2022/08/18 08:11:38;;;;;;;;;;;21.60;99.90;;;;;;5078118;28;20003;-65
2022/08/18 08:14:10;;;;;;;;;;;21.70;99.90;;;;;;5073421;28;20472;-65
2022/08/18 08:16:47;;;;;;;;;;;21.80;99.90;;;;;;5060314;28;19920;-67
2022/08/18 08:19:13;;;;;;;;;;;21.90;99.90;;;;;;5080800;28;20421;-67
2022/08/18 08:21:41;;;;;;;;;;;21.80;99.90;;;;;;5080353;28;19912;-67
2022/08/18 08:24:10;;;;;;;;;;;21.90;99.90;;;;;;5084369;28;19920;-68
2022/08/18 08:26:36;;;;;;;;;;;21.80;99.90;;;;;;5082047;28;19924;-66
2022/08/18 08:29:02;;;;;;;;;;;21.70;99.90;;;;;;5081878;28;19938;-67
2022/08/18 08:31:44;;;;;;;;;;;21.70;99.90;;;;;;5078804;28;19935;-67
2022/08/18 08:34:13;;;;;;;;;;;21.80;99.90;;;;;;5082090;28;19916;-68
2022/08/18 08:36:40;;;;;;;;;;;21.90;99.90;;;;;;5081247;28;19923;-67
2022/08/18 08:39:09;;;;;;;;;;;22.00;99.90;;;;;;5080726;28;20006;-66
2022/08/18 08:41:49;;;;;;;;;;;22.20;99.90;;;;;;5068770;28;19955;-67
2022/08/18 08:44:22;;;;;;;;;;;22.30;99.90;;;;;;5082248;28;19963;-67
2022/08/18 08:46:54;;;;;;;;;;;22.30;99.90;;;;;;5068082;28;20051;-66
2022/08/18 08:49:26;;;;;;;;;;;22.40;99.90;;;;;;5081511;28;19969;-67
2022/08/18 08:51:56;;;;;;;;;;;22.50;99.90;;;;;;5079983;28;20295;-67
2022/08/18 08:54:24;;;;;;;;;;;22.70;99.90;;;;;;5085013;28;19936;-66
2022/08/18 08:56:54;;;;;;;;;;;22.80;99.90;;;;;;5086337;28;19913;-67
2022/08/18 08:59:20;;;;;;;;;;;22.70;99.90;;;;;;5080272;28;20361;-66
2022/08/18 09:02:04;;;;;;;;;;;22.70;99.90;;;;;;5080347;28;19912;-65
2022/08/18 09:04:48;;;;;;;;;;;22.80;99.90;;;;;;5086189;28;19974;-68
2022/08/18 09:07:34;;;;;;;;;;;22.90;99.90;;;;;;5073293;28;19923;-67
2022/08/18 09:10:18;;;;;;;;;;;23.00;99.90;;;;;;5065655;28;20034;-67
2022/08/18 09:13:02;;;;;;;;;;;23.30;99.90;;;;;;5083723;28;20338;-67
2022/08/18 09:15:28;;;;;;;;;;;23.20;99.90;;;;;;5071062;28;19924;-67
2022/08/18 09:18:12;;;;;;;;;;;23.10;99.90;;;;;;5086456;28;19920;-67
2022/08/18 09:20:56;;;;;;;;;;;23.30;99.90;;;;;;5086547;28;19962;-67
2022/08/18 09:23:24;;;;;;;;;;;23.30;99.90;;;;;;5079308;28;19924;-66
2022/08/18 09:25:51;;;;;;;;;;;23.30;99.90;;;;;;5078295;28;19989;-66
2022/08/18 09:28:28;;;;;;;;;;;23.40;98.90;;;;;;5077039;28;19920;-67
2022/08/18 09:31:00;;;;;;;;;;;23.70;97.80;;;;;;5083252;28;20412;-67
2022/08/18 09:33:44;;;;;;;;;;;23.80;96.20;;;;;;5067380;28;19964;-70
2022/08/18 09:36:22;;;;;;;;;;;23.70;95.40;;;;;;5088091;28;19923;-67
2022/08/18 09:41:46;;;;;;;;;;;23.70;96.10;;;;;;5089224;28;19919;-66
2022/08/18 09:44:13;;;;;;;;;;;23.60;95.40;;;;;;5091129;28;19955;-66
2022/08/18 09:46:41;;;;;;;;;;;23.50;95.50;;;;;;5087019;28;20378;-67
2022/08/18 09:49:25;;;;;;;;;;;23.40;94.20;;;;;;5088154;28;19928;-68
2022/08/18 09:51:58;;;;;;;;;;;23.00;95.40;;;;;;5088469;28;20314;-67
2022/08/18 09:54:26;;;;;;;;;;;23.00;95.20;;;;;;5069476;28;19951;-67
2022/08/18 09:56:52;;;;;;;;;;;23.20;95.00;;;;;;5078726;28;20002;-67
2022/08/18 09:59:46;;;;;;;;;;;23.20;94.10;;;;;;5075638;28;19916;-67
2022/08/18 10:02:31;;;;;;;;;;;23.10;93.30;;;;;;5079446;28;20320;-67
2022/08/18 10:05:23;;;;;;;;;;;22.80;95.20;;;;;;5081111;28;20598;-66
2022/08/18 10:08:00;;;;;;;;;;;22.60;96.30;;;;;;5062250;28;19912;-67
2022/08/18 10:10:48;;;;;;;;;;;22.70;96.70;;;;;;5088568;28;19919;-67
2022/08/18 10:13:33;;;;;;;;;;;23.00;95.90;;;;;;5088574;28;19916;-67
2022/08/18 10:15:58;;;;;;;;;;;23.00;94.00;;;;;;5083815;28;19966;-67
2022/08/18 10:18:30;;;;;;;;;;;23.30;93.10;;;;;;5086838;28;20457;-68
2022/08/18 10:20:59;;;;;;;;;;;23.40;92.70;;;;;;5081050;28;19912;-66
2022/08/18 10:23:43;;;;;;;;;;;23.50;91.80;;;;;;5082592;28;19929;-67
2022/08/18 10:26:27;;;;;;;;;;;23.50;90.90;;;;;;5085214;28;20338;-68
2022/08/18 10:28:54;;;;;;;;;;;23.40;90.90;;;;;;5090280;28;19998;-68
2022/08/18 10:31:20;;;;;;;;;;;23.10;90.50;;;;;;5088905;28;19950;-68
2022/08/18 10:34:06;;;;;;;;;;;23.20;91.10;;;;;;5083460;28;19928;-68
2022/08/18 10:36:34;;;;;;;;;;;23.30;94.40;;;;;;5087539;28;20008;-68
2022/08/18 10:39:03;;;;;;;;;;;23.50;92.40;;;;;;5085339;28;19920;-67
2022/08/18 10:41:30;;;;;;;;;;;23.70;90.40;;;;;;5083013;28;19932;-69
2022/08/18 10:43:57;;;;;;;;;;;23.90;91.40;;;;;;5095872;28;19920;-67
2022/08/18 10:46:25;;;;;;;;;;;24.00;90.30;;;;;;5079714;28;19932;-67
2022/08/18 10:48:58;;;;;;;;;;;23.90;81.00;;;;;;5073816;28;19919;-67
2022/08/18 10:51:54;;;;;;;;;;;23.60;82.00;;;;;;5089616;28;19912;-64
2022/08/18 10:54:28;;;;;;;;;;;23.60;85.40;;;;;;5080161;28;20083;-66
2022/08/18 10:57:04;;;;;;;;;;;23.90;88.70;;;;;;5079081;28;19923;-67
2022/08/18 10:59:30;;;;;;;;;;;24.10;78.60;;;;;;5079679;28;20357;-66
2022/08/18 11:02:19;;;;;;;;;;;24.00;78.80;;;;;;5082908;28;19965;-68
2022/08/18 11:04:50;;;;;;;;;;;23.90;79.60;;;;;;5083571;28;19928;-67
2022/08/18 11:07:21;;;;;;;;;;;23.90;78.90;;;;;;5081756;28;19917;-68
2022/08/18 11:09:48;;;;;;;;;;;23.80;78.10;;;;;;5081579;28;20284;-67
2022/08/18 11:12:34;;;;;;;;;;;23.70;80.50;;;;;;5085753;28;19912;-67
2022/08/18 11:15:06;;;;;;;;;;;23.60;79.40;;;;;;5069782;28;19919;-66
2022/08/18 11:17:31;;;;;;;;;;;23.40;78.60;;;;;;5068356;28;20014;-66
2022/08/18 11:19:57;;;;;;;;;;;23.50;81.30;;;;;;5083715;28;19920;-67
2022/08/18 11:22:25;;;;;;;;;;;23.70;79.10;;;;;;5076215;28;19959;-65
2022/08/18 11:24:51;;;;;;;;;;;23.80;79.30;;;;;;5078710;28;19962;-65
2022/08/18 11:27:24;;;;;;;;;;;24.10;84.40;;;;;;5081282;28;19921;-67
2022/08/18 11:29:50;;;;;;;;;;;24.30;79.80;;;;;;5062526;28;20122;-66
2022/08/18 11:32:22;;;;;;;;;;;24.20;74.70;;;;;;5078214;28;19924;-68
2022/08/18 11:34:52;;;;;;;;;;;24.20;74.50;;;;;;5081451;28;19912;-67
2022/08/18 11:37:20;;;;;;;;;;;24.10;75.30;;;;;;5060699;28;19917;-66
2022/08/18 11:39:50;;;;;;;;;;;24.10;77.60;;;;;;5059869;28;20525;-66
2022/08/18 11:42:17;;;;;;;;;;;23.90;78.40;;;;;;5075234;28;20380;-66
2022/08/18 11:44:43;;;;;;;;;;;23.80;80.00;;;;;;5082834;28;19912;-66
2022/08/18 11:47:14;;;;;;;;;;;23.70;80.80;;;;;;5069548;28;20368;-66
2022/08/18 11:49:57;;;;;;;;;;;23.70;81.50;;;;;;5065843;28;20331;-66
2022/08/18 11:52:27;;;;;;;;;;;23.50;82.00;;;;;;5075531;28;19972;-66
2022/08/18 11:54:58;;;;;;;;;;;23.40;82.90;;;;;;5078778;28;19980;-67
2022/08/18 11:57:28;;;;;;;;;;;23.40;83.10;;;;;;5074227;28;20298;-66
2022/08/18 11:59:55;;;;;;;;;;;23.50;82.10;;;;;;5076077;28;19916;-67
2022/08/18 12:02:22;;;;;;;;;;;23.50;81.10;;;;;;5073062;28;19973;-66
2022/08/18 12:05:01;;;;;;;;;;;23.60;82.20;;;;;;5079953;28;19939;-66
2022/08/18 12:07:32;;;;;;;;;;;24.10;80.90;;;;;;5079125;28;19920;-66
2022/08/18 12:10:19;;;;;;;;;;;24.40;82.40;;;;;;5068615;28;20380;-67
2022/08/18 12:12:46;;;;;;;;;;;24.70;80.20;;;;;;5078899;28;19912;-66
2022/08/18 12:15:12;;;;;;;;;;;24.80;76.70;;;;;;5079815;28;20284;-66
2022/08/18 12:17:38;;;;;;;;;;;25.10;75.90;;;;;;5076330;28;19919;-67
2022/08/18 12:20:07;;;;;;;;;;;24.90;75.20;;;;;;5071190;28;19981;-66
2022/08/18 12:22:33;;;;;;;;;;;24.80;77.30;;;;;;5075433;28;19966;-67
2022/08/18 12:24:59;;;;;;;;;;;24.60;76.50;;;;;;5073871;28;19920;-66
2022/08/18 12:27:26;;;;;;;;;;;24.40;76.70;;;;;;5076939;28;19923;-68
2022/08/18 12:29:54;;;;;;;;;;;24.60;76.70;;;;;;5079123;28;19992;-66
2022/08/18 12:32:23;;;;;;;;;;;24.70;76.10;;;;;;5078194;28;20402;-66
2022/08/18 12:34:49;;;;;;;;;;;24.90;77.70;;;;;;5061383;28;20902;-67
2022/08/18 12:37:16;;;;;;;;;;;24.90;73.40;;;;;;5073162;28;20049;-67
2022/08/18 12:39:42;;;;;;;;;;;25.10;74.30;;;;;;5076082;28;19916;-67
2022/08/18 12:42:08;;;;;;;;;;;25.40;74.10;;;;;;5080638;28;20003;-68
2022/08/18 12:44:33;;;;;;;;;;;25.70;71.80;;;;;;5069421;28;19973;-66
2022/08/18 12:47:04;;;;;;;;;;;25.40;72.50;;;;;;5078148;28;19927;-66
2022/08/18 12:49:29;;;;;;;;;;;25.20;73.50;;;;;;5085304;28;20259;-68
2022/08/18 12:51:55;;;;;;;;;;;25.00;76.60;;;;;;5066030;28;19924;-67
2022/08/18 12:54:21;;;;;;;;;;;24.80;74.70;;;;;;5079504;28;19939;-66
2022/08/18 12:56:50;;;;;;;;;;;24.80;76.90;;;;;;5077223;28;19912;-65
2022/08/18 12:59:17;;;;;;;;;;;24.90;76.70;;;;;;5078442;28;19924;-67
2022/08/18 13:01:43;;;;;;;;;;;24.90;76.10;;;;;;5079054;28;20330;-66
2022/08/18 13:04:08;;;;;;;;;;;24.80;76.30;;;;;;5076478;28;19924;-66
2022/08/18 13:06:36;;;;;;;;;;;24.80;76.70;;;;;;5076098;28;19921;-68
2022/08/18 13:09:02;;;;;;;;;;;24.60;77.70;;;;;;5079444;28;19921;-67
2022/08/18 13:11:28;;;;;;;;;;;24.50;77.10;;;;;;5079218;28;19916;-66
2022/08/18 13:13:55;;;;;;;;;;;24.60;78.30;;;;;;5079305;28;19912;-66
2022/08/18 13:16:21;;;;;;;;;;;24.80;77.40;;;;;;5074797;28;20428;-68
2022/08/18 13:18:46;;;;;;;;;;;24.90;74.90;;;;;;5059549;28;19967;-66
2022/08/18 13:21:13;;;;;;;;;;;24.80;76.30;;;;;;5062580;28;19979;-67
2022/08/18 13:23:39;;;;;;;;;;;24.90;77.00;;;;;;5082097;28;19931;-67
2022/08/18 13:26:06;;;;;;;;;;;25.00;76.10;;;;;;5062233;28;20007;-65
2022/08/18 13:28:33;;;;;;;;;;;24.90;75.80;;;;;;5081343;28;19912;-66
2022/08/18 13:30:58;;;;;;;;;;;24.80;77.50;;;;;;5081025;28;20007;-67
2022/08/18 13:33:24;;;;;;;;;;;24.70;78.30;;;;;;5086070;28;20137;-67
2022/08/18 13:35:50;;;;;;;;;;;24.80;78.30;;;;;;5083491;28;20061;-67
2022/08/18 13:38:18;;;;;;;;;;;25.00;77.20;;;;;;5084855;28;19912;-67
2022/08/18 13:40:47;;;;;;;;;;;24.90;77.20;;;;;;5080020;28;20007;-67
2022/08/18 13:43:13;;;;;;;;;;;25.10;77.00;;;;;;5083813;28;19952;-66
2022/08/18 13:45:39;;;;;;;;;;;25.30;76.80;;;;;;5084922;28;20077;-67
2022/08/18 13:48:05;;;;;;;;;;;25.50;75.90;;;;;;5080135;28;19920;-67
2022/08/18 13:50:31;;;;;;;;;;;25.70;75.00;;;;;;5085691;28;20392;-67
2022/08/18 13:52:59;;;;;;;;;;;25.80;74.40;;;;;;5070311;28;19912;-67
2022/08/18 13:55:27;;;;;;;;;;;25.80;74.40;;;;;;5070279;28;21236;-68
2022/08/18 13:57:53;;;;;;;;;;;25.90;73.00;;;;;;5083972;28;19920;-68
2022/08/18 14:00:19;;;;;;;;;;;25.70;73.40;;;;;;5081530;28;19916;-66
2022/08/18 14:02:52;;;;;;;;;;;25.40;74.30;;;;;;5086345;28;19932;-67
2022/08/18 14:05:18;;;;;;;;;;;25.20;74.70;;;;;;5081235;28;20178;-66
2022/08/18 14:07:44;;;;;;;;;;;24.90;76.10;;;;;;5081804;28;19916;-67
2022/08/18 14:10:10;;;;;;;;;;;25.00;77.00;;;;;;5079678;28;19995;-68
2022/08/18 14:12:36;;;;;;;;;;;25.10;76.70;;;;;;5082639;28;19913;-67
2022/08/18 14:15:05;;;;;;;;;;;25.60;75.30;;;;;;5087584;28;19912;-67
2022/08/18 14:17:31;;;;;;;;;;;25.80;73.60;;;;;;5087074;28;19969;-66
2022/08/18 14:28:09;;;;;;;;;;;25.60;73.90;;;;;;5081870;28;20006;-66
2022/08/18 14:30:35;;;;;;;;;;;25.10;75.40;;;;;;5078445;28;19980;-66
2022/08/18 14:33:03;;;;;;;;;;;25.00;77.00;;;;;;5076214;28;19966;-68
2022/08/18 14:35:29;;;;;;;;;;;24.90;77.50;;;;;;5068860;28;19916;-66
2022/08/18 14:37:54;;;;;;;;;;;25.00;77.90;;;;;;5082107;28;20298;-68
2022/08/18 14:40:20;;;;;;;;;;;25.00;78.00;;;;;;5068286;28;19986;-67
2022/08/18 14:42:46;;;;;;;;;;;25.40;77.10;;;;;;5084190;28;20282;-67
2022/08/18 14:45:13;;;;;;;;;;;25.70;75.70;;;;;;5085105;28;19980;-66
2022/08/18 14:47:41;;;;;;;;;;;25.90;75.10;;;;;;5083802;28;21200;-66
2022/08/18 14:50:09;;;;;;;;;;;26.10;73.80;;;;;;5086947;28;19912;-67
2022/08/18 14:52:35;;;;;;;;;;;26.00;74.00;;;;;;5080787;28;22201;-66